Time;durP1;ratioP1;P1;durP2;ratioP2;P2;SDS_P1;SDS_P2;PMS_P1;PMS_P2;Temp;Humidity;BMP_temperature;BMP_pressure;BME280_temperature;BME280_humidity;BME280_pressure;Samples;Min_cycle;Max_cycle;Signal;HPM_P1;HPM_P2
2023/07/20 04:30:26;;;;;;;9.95;4.60;;;16.20;77.00;;;;;;5860064;23;20528;-76
2023/07/20 04:32:52;;;;;;;11.85;4.07;;;16.20;76.80;;;;;;4898212;29;20111;-76
2023/07/20 04:35:38;;;;;;;12.32;4.55;;;16.10;77.30;;;;;;4902597;29;20028;-76
2023/07/20 04:38:04;;;;;;;11.57;5.30;;;16.00;77.70;;;;;;4920030;29;20523;-76
2023/07/20 04:40:29;;;;;;;9.45;4.60;;;16.00;77.40;;;;;;4920945;29;20135;-76
2023/07/20 04:42:55;;;;;;;12.32;4.53;;;16.00;77.50;;;;;;4920159;29;20384;-76
2023/07/20 04:45:22;;;;;;;11.20;4.90;;;16.10;77.00;;;;;;4920775;29;20055;-76
2023/07/20 04:47:50;;;;;;;9.77;3.97;;;16.10;76.90;;;;;;4920158;29;20025;-77
2023/07/20 04:50:16;;;;;;;9.68;4.57;;;16.10;76.90;;;;;;4903684;29;20036;-75
2023/07/20 04:52:42;;;;;;;9.82;3.92;;;16.10;77.40;;;;;;4903579;29;20032;-77
2023/07/20 04:55:08;;;;;;;10.65;4.45;;;16.20;77.40;;;;;;4903470;29;20036;-77
2023/07/20 04:57:34;;;;;;;7.90;4.53;;;16.20;77.20;;;;;;4920641;29;20020;-76
2023/07/20 05:00:00;;;;;;;9.93;4.28;;;16.30;76.90;;;;;;4919025;29;20479;-77
2023/07/20 05:02:25;;;;;;;9.93;4.45;;;16.20;77.60;;;;;;4913925;29;20028;-75
2023/07/20 05:04:51;;;;;;;9.02;4.35;;;16.20;77.30;;;;;;4918991;29;20028;-75
2023/07/20 05:07:16;;;;;;;9.63;5.00;;;16.20;76.90;;;;;;4903436;29;20024;-75
2023/07/20 05:09:42;;;;;;;9.90;4.30;;;16.30;77.00;;;;;;4905686;29;20100;-74
2023/07/20 05:12:08;;;;;;;9.18;4.50;;;16.30;77.10;;;;;;4902996;29;20024;-76
2023/07/20 05:14:34;;;;;;;10.18;4.43;;;16.30;77.00;;;;;;4920651;29;20376;-77
2023/07/20 05:16:59;;;;;;;14.23;4.32;;;16.40;77.10;;;;;;4903813;29;20036;-79
2023/07/20 05:19:25;;;;;;;12.60;4.53;;;16.40;77.00;;;;;;4919700;29;20051;-78
2023/07/20 05:21:51;;;;;;;9.35;4.60;;;16.40;77.00;;;;;;4919866;29;20035;-81
2023/07/20 05:24:17;;;;;;;11.23;4.78;;;16.50;76.90;;;;;;4919223;29;20039;-81
2023/07/20 05:26:42;;;;;;;13.15;5.13;;;16.50;76.90;;;;;;4901924;29;20028;-80
2023/07/20 05:29:08;;;;;;;11.40;5.32;;;16.60;76.90;;;;;;4919833;29;20032;-80
2023/07/20 05:31:33;;;;;;;9.88;5.13;;;16.60;77.00;;;;;;4902392;29;20040;-79
2023/07/20 05:33:59;;;;;;;10.80;4.63;;;16.60;76.70;;;;;;4920164;29;20088;-79
2023/07/20 05:36:25;;;;;;;10.93;5.35;;;16.60;77.00;;;;;;4903091;29;20027;-80
2023/07/20 05:38:50;;;;;;;11.00;4.70;;;16.70;76.70;;;;;;4918859;29;20029;-79
2023/07/20 05:41:16;;;;;;;12.02;5.43;;;16.70;76.90;;;;;;4919642;29;20040;-78
2023/07/20 05:43:42;;;;;;;9.50;4.72;;;16.70;76.90;;;;;;4922442;29;20033;-79
2023/07/20 05:46:07;;;;;;;12.70;4.72;;;16.70;77.10;;;;;;4924043;29;20024;-78
2023/07/20 05:48:33;;;;;;;10.95;4.93;;;16.70;77.10;;;;;;4923003;29;20032;-78
2023/07/20 05:50:59;;;;;;;10.88;5.20;;;16.70;77.10;;;;;;4906438;29;20417;-78
2023/07/20 05:53:25;;;;;;;9.60;4.85;;;16.80;77.00;;;;;;4903197;29;20089;-77
2023/07/20 05:55:54;;;;;;;11.20;5.05;;;16.80;77.10;;;;;;4887044;29;20548;-78
2023/07/20 05:58:20;;;;;;;10.20;5.30;;;16.80;77.10;;;;;;4894236;29;20035;-78
2023/07/20 06:00:49;;;;;;;12.57;4.93;;;16.80;77.00;;;;;;4904664;29;20084;-78
2023/07/20 06:03:16;;;;;;;9.70;5.25;;;16.80;77.10;;;;;;4922183;29;20027;-78
2023/07/20 06:05:42;;;;;;;11.20;4.85;;;16.90;76.90;;;;;;4921889;29;20028;-78
2023/07/20 06:08:08;;;;;;;9.73;4.35;;;16.90;76.60;;;;;;4922259;29;20078;-78
2023/07/20 06:10:34;;;;;;;7.97;4.50;;;17.00;76.70;;;;;;4922268;29;20103;-78
2023/07/20 06:12:59;;;;;;;8.85;4.65;;;17.10;76.50;;;;;;4922164;29;20032;-78
2023/07/20 06:15:27;;;;;;;9.93;4.40;;;17.20;76.40;;;;;;4923651;29;20205;-78
2023/07/20 06:17:54;;;;;;;10.40;4.32;;;17.40;76.00;;;;;;4922769;29;20024;-76
2023/07/20 06:20:20;;;;;;;9.75;4.78;;;17.60;76.00;;;;;;4922166;29;20044;-76
2023/07/20 06:22:45;;;;;;;10.13;4.70;;;17.80;75.00;;;;;;4922734;29;20106;-76
2023/07/20 06:25:11;;;;;;;7.28;4.10;;;18.00;74.80;;;;;;4922932;29;20028;-75
2023/07/20 06:27:37;;;;;;;9.32;4.13;;;18.00;74.50;;;;;;4922480;29;20043;-76
2023/07/20 06:30:06;;;;;;;9.98;4.30;;;18.10;74.10;;;;;;4906407;29;20421;-76
2023/07/20 06:32:32;;;;;;;7.32;3.83;;;18.20;73.60;;;;;;4904991;29;20451;-76
2023/07/20 06:34:58;;;;;;;9.32;4.43;;;18.10;73.80;;;;;;4923164;29;20031;-76
2023/07/20 06:37:24;;;;;;;7.75;4.35;;;18.10;73.90;;;;;;4905926;29;20024;-76
2023/07/20 06:39:49;;;;;;;10.43;4.88;;;18.00;74.30;;;;;;4922403;29;20038;-76
2023/07/20 06:42:15;;;;;;;9.73;4.38;;;18.10;74.50;;;;;;4922466;29;20031;-76
2023/07/20 06:44:40;;;;;;;8.50;4.32;;;18.10;74.80;;;;;;4922153;29;20028;-76
2023/07/20 06:47:07;;;;;;;7.55;4.07;;;18.10;74.70;;;;;;4921892;29;20554;-75
2023/07/20 06:49:33;;;;;;;9.73;4.47;;;18.30;74.40;;;;;;4923011;29;20028;-75
2023/07/20 06:51:58;;;;;;;7.95;4.55;;;18.30;74.50;;;;;;4919224;29;20096;-77
2023/07/20 06:54:25;;;;;;;7.65;4.18;;;18.30;74.30;;;;;;4898840;29;20020;-76
2023/07/20 06:56:51;;;;;;;9.88;3.67;;;18.40;74.50;;;;;;4920156;29;20111;-75
2023/07/20 06:59:17;;;;;;;8.25;3.97;;;18.50;74.00;;;;;;4911343;29;20115;-77
2023/07/20 07:01:42;;;;;;;8.10;4.30;;;18.50;74.20;;;;;;4921089;29;20043;-76
2023/07/20 07:04:09;;;;;;;7.45;3.60;;;18.60;74.40;;;;;;4921681;29;20043;-76
2023/07/20 07:06:37;;;;;;;8.73;4.05;;;18.80;73.80;;;;;;4904969;29;20171;-76
2023/07/20 07:09:03;;;;;;;12.63;4.82;;;18.90;73.50;;;;;;4921246;29;20031;-76
2023/07/20 07:11:29;;;;;;;6.30;3.30;;;19.20;73.10;;;;;;4930496;29;20030;-76
2023/07/20 07:13:55;;;;;;;8.50;3.67;;;19.30;72.10;;;;;;4923276;29;20028;-77
2023/07/20 07:16:20;;;;;;;7.50;3.92;;;19.50;71.50;;;;;;4921182;29;20035;-76
2023/07/20 07:18:46;;;;;;;7.45;3.90;;;19.70;71.00;;;;;;4921815;29;20384;-76
2023/07/20 07:21:12;;;;;;;7.47;3.30;;;19.90;70.60;;;;;;4917241;29;20570;-76
2023/07/20 07:23:41;;;;;;;9.30;3.55;;;20.00;70.10;;;;;;4920791;29;20119;-76
2023/07/20 07:26:06;;;;;;;8.13;4.20;;;20.10;69.90;;;;;;4895690;29;20468;-76
2023/07/20 07:28:32;;;;;;;9.43;3.70;;;20.30;69.40;;;;;;4921235;29;20016;-76
2023/07/20 07:30:58;;;;;;;6.45;3.40;;;20.30;69.30;;;;;;4902924;29;20055;-76
2023/07/20 07:33:24;;;;;;;9.05;3.80;;;20.20;69.60;;;;;;4921417;29;20020;-75
2023/07/20 07:35:52;;;;;;;8.15;3.67;;;20.20;69.40;;;;;;4919026;29;20047;-79
2023/07/20 07:38:18;;;;;;;6.95;3.60;;;20.20;69.50;;;;;;4903360;29;20107;-79
2023/07/20 07:40:44;;;;;;;6.97;3.80;;;20.10;69.50;;;;;;4920957;29;20040;-79
2023/07/20 07:43:10;;;;;;;7.10;3.90;;;20.00;69.90;;;;;;4920020;29;20038;-79
2023/07/20 07:45:38;;;;;;;7.25;3.47;;;20.20;69.70;;;;;;4922141;29;20032;-79
2023/07/20 07:48:05;;;;;;;7.63;3.58;;;20.30;68.90;;;;;;4921710;29;20403;-79
2023/07/20 07:50:31;;;;;;;7.90;3.33;;;20.50;68.80;;;;;;4921027;29;20469;-79
2023/07/20 07:52:57;;;;;;;7.30;3.42;;;21.00;67.60;;;;;;4921844;29;20024;-79
2023/07/20 07:55:24;;;;;;;6.43;3.47;;;21.60;65.90;;;;;;4918696;29;20036;-79
2023/07/20 07:57:49;;;;;;;6.15;3.33;;;21.50;66.00;;;;;;4912944;29;20020;-80
2023/07/20 08:00:18;;;;;;;6.20;3.50;;;21.80;65.90;;;;;;4920943;29;20043;-80
2023/07/20 08:02:44;;;;;;;5.68;2.95;;;21.90;64.40;;;;;;4928099;29;20586;-80
2023/07/20 08:05:10;;;;;;;5.45;3.15;;;22.00;64.50;;;;;;4932163;29;20023;-79
2023/07/20 08:07:36;;;;;;;5.20;2.80;;;22.00;64.30;;;;;;4936419;29;20510;-80
2023/07/20 08:10:02;;;;;;;6.63;3.20;;;21.70;65.00;;;;;;4925856;29;20172;-80
2023/07/20 08:12:28;;;;;;;6.25;2.83;;;22.00;64.70;;;;;;4924038;29;20026;-80
2023/07/20 08:14:54;;;;;;;6.43;3.30;;;22.30;63.30;;;;;;4903742;29;20028;-80
2023/07/20 08:17:19;;;;;;;5.38;2.90;;;23.00;61.50;;;;;;4920795;29;20091;-80
2023/07/20 08:19:46;;;;;;;6.57;2.92;;;23.50;60.30;;;;;;4921342;29;20040;-80
2023/07/20 08:22:12;;;;;;;5.57;2.72;;;23.70;58.90;;;;;;4919026;29;20107;-80
2023/07/20 08:24:42;;;;;;;8.10;3.20;;;23.30;59.70;;;;;;4919517;29;20035;-80
2023/07/20 08:27:08;;;;;;;7.35;3.45;;;23.00;59.90;;;;;;4920116;29;20063;-80
2023/07/20 08:29:34;;;;;;;5.93;2.78;;;23.00;60.40;;;;;;4919658;29;20055;-80
2023/07/20 08:32:00;;;;;;;6.85;2.92;;;23.40;59.80;;;;;;4919347;29;20145;-79
2023/07/20 08:34:25;;;;;;;5.45;2.78;;;23.20;60.00;;;;;;4919026;29;20475;-80
2023/07/20 08:36:51;;;;;;;6.70;3.10;;;23.20;60.20;;;;;;4915492;29;20058;-79
2023/07/20 08:39:17;;;;;;;5.88;2.97;;;23.40;58.80;;;;;;4919796;29;20487;-79
2023/07/20 08:41:43;;;;;;;7.03;2.60;;;23.30;58.70;;;;;;4919315;29;20035;-79
2023/07/20 08:44:11;;;;;;;7.68;2.83;;;23.20;59.00;;;;;;4919051;29;20032;-79
2023/07/20 08:46:38;;;;;;;5.63;2.85;;;23.50;58.40;;;;;;4920723;29;20479;-79
2023/07/20 08:49:05;;;;;;;6.22;2.67;;;23.60;59.40;;;;;;4903128;29;20125;-80
2023/07/20 08:51:31;;;;;;;6.13;2.90;;;23.60;58.10;;;;;;4900616;29;20048;-79
2023/07/20 08:54:01;;;;;;;4.50;2.65;;;23.40;58.00;;;;;;4918857;29;20042;-79
2023/07/20 08:56:27;;;;;;;6.00;3.20;;;23.20;59.10;;;;;;4902818;29;20483;-79
2023/07/20 08:58:56;;;;;;;6.32;2.70;;;22.80;59.60;;;;;;4903000;29;20080;-79
2023/07/20 09:01:22;;;;;;;7.15;3.08;;;22.70;60.60;;;;;;4918344;29;20024;-79
2023/07/20 09:03:49;;;;;;;5.18;3.03;;;22.80;59.40;;;;;;4902640;29;20106;-79
2023/07/20 09:06:15;;;;;;;6.35;2.70;;;23.30;58.70;;;;;;4919243;29;20028;-79
2023/07/20 09:08:42;;;;;;;4.97;2.70;;;23.40;58.10;;;;;;4917961;29;20114;-79
2023/07/20 09:11:09;;;;;;;6.28;2.88;;;23.20;58.10;;;;;;4900701;29;20032;-79
2023/07/20 09:13:35;;;;;;;5.15;2.65;;;23.10;58.80;;;;;;4919626;29;20418;-79
2023/07/20 09:16:01;;;;;;;6.72;3.00;;;23.10;58.90;;;;;;4916101;29;20028;-79
2023/07/20 09:18:32;;;;;;;4.57;2.90;;;22.90;58.80;;;;;;4922390;29;20036;-79
2023/07/20 09:21:07;;;;;;;6.70;2.95;;;23.00;58.60;;;;;;4908734;29;20024;-79
2023/07/20 09:23:38;;;;;;;3.90;2.70;;;23.10;59.10;;;;;;4924293;29;20092;-79
2023/07/20 09:26:11;;;;;;;5.68;3.03;;;23.20;57.50;;;;;;4925571;29;20035;-79
2023/07/20 09:28:44;;;;;;;7.43;3.10;;;23.40;57.30;;;;;;4923496;29;20119;-79
2023/07/20 09:31:36;;;;;;;5.90;2.97;;;23.90;57.40;;;;;;4909021;29;20395;-79
2023/07/20 09:34:03;;;;;;;4.82;2.47;;;24.40;55.40;;;;;;4921600;29;20078;-79
2023/07/20 09:36:29;;;;;;;7.30;2.75;;;25.00;53.10;;;;;;4908873;29;20035;-79
2023/07/20 09:38:55;;;;;;;5.68;2.53;;;26.30;49.70;;;;;;4925791;29;20059;-80
2023/07/20 09:41:21;;;;;;;4.40;2.30;;;27.40;47.40;;;;;;4924723;29;20024;-79
2023/07/20 09:43:47;;;;;;;4.75;2.28;;;28.10;44.50;;;;;;4925749;29;20031;-79
2023/07/20 09:46:13;;;;;;;4.03;2.20;;;28.90;43.80;;;;;;4924365;29;20028;-79
2023/07/20 09:48:39;;;;;;;4.15;2.15;;;29.50;41.60;;;;;;4924710;29;20036;-80
2023/07/20 09:51:06;;;;;;;4.78;2.22;;;30.30;39.60;;;;;;4918507;29;20035;-79
2023/07/20 09:53:33;;;;;;;4.75;2.20;;;31.10;39.20;;;;;;4906378;29;20036;-80
2023/07/20 09:55:59;;;;;;;4.30;1.77;;;31.50;37.60;;;;;;4909906;29;20037;-80
2023/07/20 09:58:27;;;;;;;5.20;2.30;;;31.70;37.00;;;;;;4907860;29;20134;-80
2023/07/20 10:00:57;;;;;;;6.65;2.30;;;30.50;38.90;;;;;;4919535;29;20024;-80
2023/07/20 10:03:28;;;;;;;5.65;2.28;;;29.00;40.60;;;;;;4925126;29;20040;-80
2023/07/20 10:06:03;;;;;;;7.05;2.45;;;28.00;43.20;;;;;;4926235;29;20016;-79
2023/07/20 10:08:31;;;;;;;5.30;2.22;;;27.10;44.80;;;;;;4908930;29;20032;-79
2023/07/20 10:11:01;;;;;;;4.80;2.38;;;26.60;46.10;;;;;;4938142;29;20024;-79
2023/07/20 10:13:29;;;;;;;4.57;2.35;;;27.50;46.10;;;;;;4945519;29;20035;-80
2023/07/20 10:16:06;;;;;;;4.05;2.10;;;28.60;43.50;;;;;;4931497;29;20031;-80
2023/07/20 10:18:42;;;;;;;6.05;2.50;;;29.50;41.20;;;;;;4925398;29;20028;-79
2023/07/20 10:21:09;;;;;;;3.72;2.30;;;30.10;40.20;;;;;;4926090;29;20032;-79
2023/07/20 10:23:35;;;;;;;5.10;2.50;;;30.40;37.30;;;;;;4909153;29;20040;-80
2023/07/20 10:26:02;;;;;;;4.30;2.00;;;30.70;37.20;;;;;;4926083;29;20035;-79
2023/07/20 10:28:28;;;;;;;3.08;1.92;;;31.00;37.30;;;;;;4908758;29;20039;-79
2023/07/20 10:30:54;;;;;;;4.68;2.10;;;31.30;36.40;;;;;;4906542;29;20048;-79
2023/07/20 10:33:21;;;;;;;3.13;1.63;;;31.50;35.00;;;;;;4922835;29;20502;-80
2023/07/20 10:36:07;;;;;;;4.93;2.22;;;31.40;35.60;;;;;;4923049;29;20032;-79
2023/07/20 10:38:40;;;;;;;6.53;2.03;;;31.20;34.10;;;;;;4905703;29;20032;-79
2023/07/20 10:41:16;;;;;;;4.22;1.90;;;31.20;35.60;;;;;;4922682;29;20022;-80
2023/07/20 10:43:44;;;;;;;3.55;1.75;;;30.80;35.50;;;;;;4902374;29;20118;-79
2023/07/20 10:46:11;;;;;;;6.82;1.90;;;30.20;36.60;;;;;;4916707;29;20115;-81
2023/07/20 10:49:01;;;;;;;4.78;1.88;;;29.60;38.10;;;;;;4921943;29;20163;-81
2023/07/20 10:51:27;;;;;;;4.35;1.73;;;28.80;38.40;;;;;;4905357;29;20106;-81
2023/07/20 10:53:58;;;;;;;6.25;2.03;;;28.40;40.90;;;;;;4926822;29;20039;-81
2023/07/20 10:56:26;;;;;;;4.57;1.85;;;27.90;41.60;;;;;;4920890;29;20028;-81
2023/07/20 10:58:59;;;;;;;4.15;1.83;;;27.90;41.50;;;;;;4904192;29;20036;-81
2023/07/20 11:01:31;;;;;;;4.63;2.03;;;28.00;42.60;;;;;;4920055;29;20028;-79
2023/07/20 11:04:00;;;;;;;4.43;2.00;;;27.80;41.80;;;;;;4920794;29;20039;-81
2023/07/20 11:06:25;;;;;;;3.75;1.73;;;27.50;42.20;;;;;;4917736;29;20512;-81
2023/07/20 11:09:26;;;;;;;4.28;1.88;;;27.60;42.80;;;;;;4926879;29;20529;-82
2023/07/20 11:12:16;;;;;;;5.70;1.67;;;27.60;42.50;;;;;;4842799;29;20399;-81
2023/07/20 11:14:54;;;;;;;5.03;1.98;;;27.70;41.60;;;;;;4919829;29;20076;-81
2023/07/20 11:17:22;;;;;;;4.07;1.90;;;27.70;42.80;;;;;;4904741;29;20024;-81
2023/07/20 11:19:56;;;;;;;3.83;1.77;;;27.70;41.50;;;;;;4921100;29;20082;-82
2023/07/20 11:22:22;;;;;;;3.78;1.65;;;27.70;41.60;;;;;;4920535;29;20024;-82
2023/07/20 11:24:49;;;;;;;5.10;1.80;;;27.80;42.00;;;;;;4920925;29;20036;-79
2023/07/20 11:27:15;;;;;;;4.32;1.67;;;27.80;41.90;;;;;;4904632;29;20036;-80
2023/07/20 11:29:41;;;;;;;4.53;1.90;;;27.90;40.80;;;;;;4920834;29;20036;-80
2023/07/20 11:32:07;;;;;;;3.42;1.73;;;28.00;40.60;;;;;;4918887;29;20054;-79
2023/07/20 11:34:34;;;;;;;6.57;1.88;;;28.10;41.50;;;;;;4921858;29;20024;-78
2023/07/20 11:37:00;;;;;;;2.80;1.67;;;28.20;41.30;;;;;;4921713;29;20020;-79
2023/07/20 11:39:26;;;;;;;3.30;1.70;;;28.20;39.80;;;;;;4921905;29;20566;-79
2023/07/20 11:41:54;;;;;;;5.15;1.98;;;28.00;40.40;;;;;;4921024;29;20042;-79
2023/07/20 11:44:27;;;;;;;3.95;2.10;;;28.00;39.80;;;;;;4921634;29;20398;-79
2023/07/20 11:47:07;;;;;;;3.03;1.60;;;27.90;40.20;;;;;;4920288;29;20066;-79
2023/07/20 11:49:37;;;;;;;4.13;1.80;;;28.10;40.70;;;;;;4921182;29;20376;-79
2023/07/20 11:52:07;;;;;;;4.25;1.70;;;28.20;41.20;;;;;;4921444;29;20076;-79
2023/07/20 11:54:38;;;;;;;5.15;1.67;;;28.20;40.60;;;;;;4920623;29;20028;-80
2023/07/20 11:57:05;;;;;;;4.63;2.25;;;28.20;40.90;;;;;;4921519;29;20028;-80
2023/07/20 11:59:31;;;;;;;3.67;1.67;;;28.30;40.20;;;;;;4921401;29;20020;-80
2023/07/20 12:02:01;;;;;;;3.58;1.65;;;28.20;39.50;;;;;;4917599;29;20036;-80
2023/07/20 12:04:27;;;;;;;5.20;2.08;;;27.80;40.30;;;;;;4920344;29;20043;-79
2023/07/20 12:06:55;;;;;;;3.58;1.60;;;27.60;40.90;;;;;;4920895;29;20028;-79
2023/07/20 12:09:20;;;;;;;5.82;2.00;;;27.40;41.90;;;;;;4920041;29;20028;-78
2023/07/20 12:11:49;;;;;;;4.80;1.80;;;27.30;42.30;;;;;;4923458;29;20028;-79
2023/07/20 12:14:15;;;;;;;4.97;1.80;;;27.20;41.80;;;;;;4903839;29;20028;-79
2023/07/20 12:16:41;;;;;;;4.20;1.63;;;27.30;42.10;;;;;;4920757;29;20040;-79
2023/07/20 12:19:12;;;;;;;4.65;1.80;;;27.40;41.20;;;;;;4903771;29;20032;-80
2023/07/20 12:21:39;;;;;;;5.00;1.80;;;27.40;41.00;;;;;;4920848;29;20031;-79
2023/07/20 12:24:07;;;;;;;4.13;1.48;;;27.30;40.80;;;;;;4920903;29;20028;-80
2023/07/20 12:26:33;;;;;;;3.08;1.52;;;27.40;41.50;;;;;;4920901;29;20030;-79
2023/07/20 12:28:59;;;;;;;3.67;1.75;;;27.70;40.60;;;;;;4919442;29;20127;-80
2023/07/20 12:31:26;;;;;;;3.00;1.40;;;27.70;38.80;;;;;;4920082;29;20501;-80
2023/07/20 12:33:55;;;;;;;3.25;1.40;;;27.70;39.20;;;;;;4913502;29;20511;-80
2023/07/20 12:36:21;;;;;;;6.03;1.63;;;27.80;39.00;;;;;;4921179;29;20047;-80
2023/07/20 12:38:46;;;;;;;4.43;1.73;;;27.70;38.80;;;;;;4904437;29;20036;-80
2023/07/20 12:41:13;;;;;;;3.97;1.50;;;27.60;39.80;;;;;;4918424;29;20032;-81
2023/07/20 12:43:40;;;;;;;4.22;1.70;;;27.50;39.50;;;;;;4903961;29;20082;-81
2023/07/20 12:46:06;;;;;;;4.63;1.90;;;27.40;38.90;;;;;;4919828;29;20024;-80
2023/07/20 12:48:31;;;;;;;3.80;1.58;;;27.30;39.40;;;;;;4904331;29;20475;-81
2023/07/20 12:50:58;;;;;;;3.17;1.40;;;27.20;39.90;;;;;;4901187;29;20084;-81
2023/07/20 12:53:24;;;;;;;4.55;1.60;;;27.20;40.60;;;;;;4918570;29;20032;-81
2023/07/20 12:55:49;;;;;;;3.35;1.70;;;27.20;40.40;;;;;;4919467;29;20182;-80
2023/07/20 12:58:15;;;;;;;3.65;1.65;;;27.20;40.40;;;;;;4919553;29;20032;-81
2023/07/20 13:00:41;;;;;;;4.97;1.40;;;27.20;40.00;;;;;;4918571;29;20032;-81
2023/07/20 13:03:08;;;;;;;4.05;1.75;;;27.20;39.80;;;;;;4916424;29;20039;-81
2023/07/20 13:05:35;;;;;;;2.22;1.40;;;27.20;40.80;;;;;;4919553;29;20053;-81
2023/07/20 13:08:01;;;;;;;3.00;1.40;;;27.20;41.00;;;;;;4920240;29;20024;-81
2023/07/20 13:10:28;;;;;;;2.60;1.50;;;27.30;40.60;;;;;;4919412;29;20080;-81
2023/07/20 13:12:53;;;;;;;2.80;1.50;;;27.30;41.50;;;;;;4921231;29;20476;-80
2023/07/20 13:15:19;;;;;;;4.25;1.55;;;27.40;40.40;;;;;;4919912;29;20076;-81
2023/07/20 13:17:45;;;;;;;3.47;1.52;;;27.40;41.00;;;;;;4919068;29;20028;-81
2023/07/20 13:20:11;;;;;;;4.82;1.45;;;27.50;41.10;;;;;;4919934;29;20031;-82
2023/07/20 13:22:38;;;;;;;2.97;1.50;;;27.70;40.50;;;;;;4903023;29;20032;-81
2023/07/20 13:25:05;;;;;;;2.72;1.50;;;27.60;39.80;;;;;;4919914;29;20028;-81
2023/07/20 13:27:31;;;;;;;3.15;1.40;;;27.50;41.20;;;;;;4920794;29;20388;-81
2023/07/20 13:29:59;;;;;;;4.22;1.77;;;27.30;40.10;;;;;;4919953;29;20032;-81
2023/07/20 13:32:26;;;;;;;2.75;1.40;;;27.30;40.00;;;;;;4910221;29;20049;-81
2023/07/20 13:34:52;;;;;;;3.30;1.70;;;27.40;40.70;;;;;;4919558;29;20024;-81
2023/07/20 13:37:17;;;;;;;5.55;1.70;;;27.50;39.50;;;;;;4917875;29;20444;-80
2023/07/20 13:39:43;;;;;;;3.80;1.55;;;27.60;40.60;;;;;;4920467;29;20047;-80
2023/07/20 13:42:10;;;;;;;3.65;1.70;;;27.60;39.70;;;;;;4919140;29;20043;-81
2023/07/20 13:44:37;;;;;;;3.28;1.50;;;27.60;39.20;;;;;;4919915;29;20483;-81
2023/07/20 13:47:05;;;;;;;2.40;1.48;;;27.60;38.70;;;;;;4918769;29;20043;-80
2023/07/20 13:49:31;;;;;;;4.05;1.50;;;27.70;39.80;;;;;;4901782;29;20036;-80
2023/07/20 13:51:57;;;;;;;6.40;1.77;;;27.50;39.50;;;;;;4902069;29;20051;-80
2023/07/20 13:54:26;;;;;;;4.32;1.52;;;27.60;40.30;;;;;;4919689;29;20068;-80
2023/07/20 13:56:52;;;;;;;3.15;1.70;;;27.30;39.30;;;;;;4920500;29;20063;-80
2023/07/20 13:59:18;;;;;;;5.10;1.77;;;27.30;39.80;;;;;;4902138;29;20519;-81
2023/07/20 14:01:44;;;;;;;3.53;1.60;;;27.20;42.50;;;;;;4902323;29;20032;-80
2023/07/20 14:04:10;;;;;;;3.33;1.80;;;27.00;43.80;;;;;;4900802;29;20039;-80
2023/07/20 14:06:35;;;;;;;5.15;2.00;;;27.00;44.70;;;;;;4922076;29;20108;-79
2023/07/20 14:09:03;;;;;;;5.85;1.98;;;27.00;44.90;;;;;;4921437;29;20032;-80
2023/07/20 14:11:29;;;;;;;3.70;2.15;;;26.90;45.70;;;;;;4921271;29;20028;-79
2023/07/20 14:13:55;;;;;;;3.25;1.80;;;26.90;46.30;;;;;;4923065;29;20118;-80
2023/07/20 14:16:21;;;;;;;5.20;2.00;;;26.90;46.60;;;;;;4906291;29;20040;-80
2023/07/20 14:18:48;;;;;;;2.95;1.70;;;26.90;47.20;;;;;;4920771;29;20035;-80
2023/07/20 14:21:15;;;;;;;3.20;1.70;;;26.90;47.10;;;;;;4922346;29;20024;-79
2023/07/20 14:23:41;;;;;;;4.43;1.80;;;26.80;47.00;;;;;;4906760;29;20024;-80
2023/07/20 14:26:08;;;;;;;3.92;1.80;;;26.70;46.80;;;;;;4923038;29;20873;-80
2023/07/20 14:28:35;;;;;;;4.05;1.90;;;26.70;47.30;;;;;;4923451;29;20475;-80
2023/07/20 14:31:00;;;;;;;3.53;1.67;;;26.80;46.40;;;;;;4904949;29;20049;-80
2023/07/20 14:33:26;;;;;;;4.38;1.58;;;26.80;47.10;;;;;;4922075;29;20051;-81
2023/07/20 14:35:54;;;;;;;4.07;2.08;;;26.80;47.20;;;;;;4921993;29;20051;-81
2023/07/20 14:38:20;;;;;;;5.18;1.90;;;26.80;47.20;;;;;;4906442;29;20110;-81
2023/07/20 14:40:46;;;;;;;4.95;2.20;;;26.70;47.00;;;;;;4905676;29;20044;-81
2023/07/20 14:43:13;;;;;;;4.70;1.98;;;26.70;47.40;;;;;;4922385;29;20021;-81
2023/07/20 14:45:40;;;;;;;3.85;1.90;;;26.60;47.60;;;;;;4922238;29;20024;-80
2023/07/20 14:48:06;;;;;;;3.60;1.80;;;26.60;47.80;;;;;;4922623;29;20355;-81
2023/07/20 14:50:32;;;;;;;4.68;1.80;;;26.50;47.80;;;;;;4904616;29;20491;-81
2023/07/20 14:52:57;;;;;;;4.15;2.03;;;26.60;47.60;;;;;;4906103;29;20020;-80
2023/07/20 14:55:23;;;;;;;3.58;1.90;;;26.60;47.80;;;;;;4922689;29;20028;-80
2023/07/20 14:57:49;;;;;;;5.15;1.98;;;26.60;48.20;;;;;;4922007;29;20097;-80
2023/07/20 15:00:15;;;;;;;4.60;1.80;;;26.60;47.50;;;;;;4922322;29;20020;-81
2023/07/20 15:02:41;;;;;;;4.88;1.95;;;26.60;47.50;;;;;;4921612;29;20440;-80
2023/07/20 15:05:10;;;;;;;5.18;1.88;;;26.80;46.80;;;;;;4904985;29;20036;-80
2023/07/20 15:07:37;;;;;;;5.18;2.13;;;26.80;46.70;;;;;;4905836;29;20024;-80
2023/07/20 15:10:04;;;;;;;4.70;2.85;;;26.80;46.70;;;;;;4902265;29;20058;-80
2023/07/20 15:12:30;;;;;;;5.38;2.20;;;26.80;46.80;;;;;;4919502;29;20467;-80
2023/07/20 15:15:08;;;;;;;5.25;1.98;;;26.80;47.40;;;;;;4921690;29;20436;-80
2023/07/20 15:17:38;;;;;;;4.53;2.20;;;26.80;46.80;;;;;;4922141;29;20015;-80
2023/07/20 15:20:05;;;;;;;5.70;1.95;;;26.80;47.70;;;;;;4919755;29;20039;-80
2023/07/20 15:22:32;;;;;;;3.42;1.90;;;26.90;47.10;;;;;;4922276;29;20023;-80
2023/07/20 15:24:58;;;;;;;5.13;2.08;;;26.70;48.10;;;;;;4921999;29;20028;-80
2023/07/20 15:27:24;;;;;;;4.93;2.00;;;26.50;46.80;;;;;;4921919;29;20160;-80
2023/07/20 15:29:50;;;;;;;3.95;1.85;;;26.50;47.40;;;;;;4921726;29;20079;-80
2023/07/20 15:32:19;;;;;;;3.53;1.80;;;26.60;46.90;;;;;;4919029;29;20523;-80
2023/07/20 15:34:46;;;;;;;3.13;1.73;;;26.60;46.70;;;;;;4920484;29;20039;-80
2023/07/20 15:37:12;;;;;;;4.25;1.70;;;26.60;47.20;;;;;;4922024;29;20383;-80
2023/07/20 15:39:38;;;;;;;4.78;1.80;;;26.50;46.60;;;;;;4921635;29;20088;-80
2023/07/20 15:42:04;;;;;;;5.07;1.90;;;26.40;47.20;;;;;;4921687;29;20024;-80
2023/07/20 15:44:30;;;;;;;4.80;1.58;;;26.40;47.00;;;;;;4921655;29;20088;-80
2023/07/20 15:46:56;;;;;;;5.38;2.00;;;26.30;46.60;;;;;;4920645;29;20040;-80
2023/07/20 15:49:22;;;;;;;4.70;1.80;;;26.30;47.00;;;;;;4920557;29;20029;-80
2023/07/20 15:51:48;;;;;;;3.40;1.75;;;26.10;47.10;;;;;;4904109;29;20027;-80
2023/07/20 15:54:14;;;;;;;3.35;1.90;;;26.10;47.60;;;;;;4919523;29;20483;-80
2023/07/20 15:56:41;;;;;;;3.95;1.70;;;26.10;47.40;;;;;;4921257;29;20020;-79
2023/07/20 15:59:09;;;;;;;4.50;2.00;;;26.10;47.80;;;;;;4921428;29;20092;-80
2023/07/20 16:01:36;;;;;;;4.35;1.90;;;26.00;47.60;;;;;;4919739;29;20020;-80
2023/07/20 16:04:02;;;;;;;4.78;1.98;;;26.00;47.90;;;;;;4913789;29;20032;-80
2023/07/20 16:06:28;;;;;;;5.40;2.00;;;25.80;48.00;;;;;;4921091;29;20444;-80
2023/07/20 16:08:54;;;;;;;2.92;1.75;;;25.80;48.20;;;;;;4920722;29;20044;-80
2023/07/20 16:11:23;;;;;;;6.00;1.98;;;25.70;48.60;;;;;;4921449;29;20472;-80
2023/07/20 16:13:50;;;;;;;3.85;1.92;;;25.70;48.50;;;;;;4921238;29;20072;-80
2023/07/20 16:16:16;;;;;;;2.83;1.50;;;25.70;48.40;;;;;;4903388;29;20059;-80
2023/07/20 16:18:42;;;;;;;2.50;1.50;;;25.70;48.70;;;;;;4920292;29;20033;-80
2023/07/20 16:21:07;;;;;;;4.85;1.85;;;25.70;48.30;;;;;;4920920;29;20103;-80
2023/07/20 16:23:33;;;;;;;3.45;1.80;;;25.60;48.30;;;;;;4920466;29;20124;-80
2023/07/20 16:25:59;;;;;;;3.70;1.65;;;25.60;48.70;;;;;;4918363;29;20038;-80
2023/07/20 16:28:26;;;;;;;4.18;1.90;;;25.50;48.60;;;;;;4918569;29;20485;-80
2023/07/20 16:30:53;;;;;;;3.55;1.67;;;25.40;49.00;;;;;;4917145;29;20047;-80
2023/07/20 16:33:18;;;;;;;3.95;1.80;;;25.40;49.10;;;;;;4901696;29;20036;-80
2023/07/20 16:35:44;;;;;;;2.97;1.60;;;25.30;49.30;;;;;;4902407;29;20021;-80
2023/07/20 16:38:10;;;;;;;4.15;2.72;;;25.20;49.70;;;;;;4915688;29;20506;-80
2023/07/20 16:40:37;;;;;;;3.42;2.03;;;25.30;49.60;;;;;;4921020;29;20028;-80
2023/07/20 16:43:03;;;;;;;5.40;2.00;;;25.20;49.90;;;;;;4919119;29;20028;-80
2023/07/20 16:45:31;;;;;;;3.13;1.80;;;25.10;49.80;;;;;;4898312;29;20543;-79
2023/07/20 16:47:58;;;;;;;4.47;1.70;;;25.00;50.20;;;;;;4903581;29;20044;-79
2023/07/20 16:50:24;;;;;;;5.88;1.67;;;25.00;50.20;;;;;;4915410;29;20024;-80
2023/07/20 16:52:50;;;;;;;3.97;2.10;;;24.90;49.80;;;;;;4918120;29;20502;-80
2023/07/20 16:55:16;;;;;;;4.25;1.80;;;24.80;50.00;;;;;;4916701;29;20038;-79
2023/07/20 16:57:42;;;;;;;3.60;2.00;;;24.70;50.00;;;;;;4920629;29;20103;-79
2023/07/20 17:00:10;;;;;;;5.07;1.95;;;24.70;49.80;;;;;;4921237;29;20035;-79
2023/07/20 17:02:40;;;;;;;4.45;1.92;;;24.70;50.30;;;;;;4917875;29;20035;-79
2023/07/20 17:05:09;;;;;;;3.95;1.95;;;24.70;50.30;;;;;;4920233;29;20032;-79
2023/07/20 17:07:42;;;;;;;3.72;2.15;;;24.70;50.50;;;;;;4900219;29;20084;-79
2023/07/20 17:10:09;;;;;;;5.60;1.70;;;24.80;50.70;;;;;;4915773;29;20030;-80
2023/07/20 17:12:38;;;;;;;5.20;1.90;;;24.80;50.60;;;;;;4914782;29;20063;-81
2023/07/20 17:15:04;;;;;;;4.32;1.88;;;24.70;50.40;;;;;;4897784;29;20024;-81